Time;durP1;ratioP1;P1;durP2;ratioP2;P2;SDS_P1;SDS_P2;PMS_P1;PMS_P2;Temp;Humidity;BMP_temperature;BMP_pressure;BME280_temperature;BME280_humidity;BME280_pressure;Samples;Min_cycle;Max_cycle;Signal;HPM_P1;HPM_P2
2022/12/26 00:01:25;;;;;;;;;;;;;;;12.71;58.22;100988.28;5325503;32;33302;-81
2022/12/26 00:04:27;;;;;;;;;;;;;;;13.01;57.57;100995.03;5329345;32;34349;-68
2022/12/26 00:07:49;;;;;;;;;;;;;;;12.94;57.86;101012.00;5342490;32;45214;-67
2022/12/26 00:10:51;;;;;;;;;;;;;;;12.40;59.00;101000.00;5325397;32;33284;-80
2022/12/26 00:13:54;;;;;;;;;;;;;;;12.23;60.50;100997.09;5341813;32;33268;-68
2022/12/26 00:16:56;;;;;;;;;;;;;;;12.39;59.33;100989.50;5326628;32;33774;-69
2022/12/26 00:19:58;;;;;;;;;;;;;;;12.39;59.48;100985.09;5338414;32;34102;-81
2022/12/26 00:23:00;;;;;;;;;;;;;;;12.23;59.91;100993.59;5315410;32;34048;-69
2022/12/26 00:26:06;;;;;;;;;;;;;;;12.12;60.44;100994.00;5325338;32;33893;-81
2022/12/26 00:29:08;;;;;;;;;;;;;;;12.45;59.56;100991.91;5343089;32;34990;-69
2022/12/26 00:32:09;;;;;;;;;;;;;;;12.31;59.90;100987.16;5321925;32;34510;-67
2022/12/26 00:35:12;;;;;;;;;;;;;;;12.57;59.04;100983.56;5338862;32;33930;-68
2022/12/26 00:38:15;;;;;;;;;;;;;;;12.14;59.86;100971.09;5325844;32;33771;-80
2022/12/26 00:41:17;;;;;;;;;;;;;;;11.71;61.53;100977.84;5337479;32;43495;-81
2022/12/26 00:44:19;;;;;;;;;;;;;;;12.07;60.86;100985.41;5330396;32;34857;-67
2022/12/26 00:47:21;;;;;;;;;;;;;;;12.01;60.45;100985.63;5325779;32;34438;-67
2022/12/26 00:50:23;;;;;;;;;;;;;;;11.65;62.31;100999.09;5332510;32;33430;-68
2022/12/26 00:53:30;;;;;;;;;;;;;;;12.09;60.93;101002.00;5301149;32;35792;-81
2022/12/26 00:56:32;;;;;;;;;;;;;;;11.34;63.23;101005.41;5338756;32;34719;-76
2022/12/26 00:59:34;;;;;;;;;;;;;;;11.52;62.67;101003.91;5325546;32;31814;-68
2022/12/26 01:02:39;;;;;;;;;;;;;;;11.63;62.57;101006.19;5331996;32;33408;-82
2022/12/26 01:05:43;;;;;;;;;;;;;;;11.35;63.68;101011.53;5332329;32;33834;-68
2022/12/26 01:08:44;;;;;;;;;;;;;;;10.95;64.86;100997.00;5323065;32;33905;-67
2022/12/26 01:11:46;;;;;;;;;;;;;;;11.47;63.14;100989.22;5340354;32;43940;-80
2022/12/26 01:14:48;;;;;;;;;;;;;;;11.78;61.92;100976.69;5324794;32;34187;-67
2022/12/26 01:17:50;;;;;;;;;;;;;;;11.92;61.57;100971.00;5341203;32;33723;-82
2022/12/26 01:20:56;;;;;;;;;;;;;;;11.63;62.59;100969.34;5323808;32;34421;-68
2022/12/26 01:23:58;;;;;;;;;;;;;;;11.96;61.38;100982.28;5330927;32;34195;-82
2022/12/26 01:27:00;;;;;;;;;;;;;;;11.32;63.69;100987.91;5335064;32;34247;-68
2022/12/26 01:30:02;;;;;;;;;;;;;;;11.44;63.62;100987.53;5322658;32;34575;-76
2022/12/26 01:33:04;;;;;;;;;;;;;;;10.94;64.80;100978.63;5334323;32;33321;-67
2022/12/26 01:36:06;;;;;;;;;;;;;;;11.59;62.97;100965.97;5321464;32;33897;-67
2022/12/26 01:39:08;;;;;;;;;;;;;;;11.53;63.48;100973.22;5338328;32;33938;-81
2022/12/26 01:42:14;;;;;;;;;;;;;;;11.29;64.19;100970.47;5324918;32;33973;-68
2022/12/26 01:45:16;;;;;;;;;;;;;;;10.95;65.07;100981.22;5325286;32;44918;-82
2022/12/26 01:48:24;;;;;;;;;;;;;;;10.87;65.34;100972.69;5339146;32;35443;-68
2022/12/26 01:51:27;;;;;;;;;;;;;;;10.79;65.71;100959.78;5309741;32;32942;-67
2022/12/26 01:54:30;;;;;;;;;;;;;;;10.69;66.17;100965.34;5335607;32;33860;-70
2022/12/26 01:57:43;;;;;;;;;;;;;;;10.29;67.64;100964.78;5326204;32;34316;-81
2022/12/26 02:00:45;;;;;;;;;;;;;;;10.68;66.65;100967.12;5337688;32;33517;-81
2022/12/26 02:07:07;;;;;;;;;;;;;;;9.61;70.50;100954.38;5324369;32;33951;-82
2022/12/26 02:10:12;;;;;;;;;;;;;;;9.85;70.20;100957.22;5339702;32;33948;-80
2022/12/26 02:13:14;;;;;;;;;;;;;;;10.11;68.85;100954.78;5326580;32;33661;-82
2022/12/26 02:16:17;;;;;;;;;;;;;;;9.96;69.95;100952.56;5338995;32;43359;-76
2022/12/26 02:19:25;;;;;;;;;;;;;;;10.09;68.97;100953.94;5325579;32;33808;-81
2022/12/26 02:22:45;;;;;;;;;;;;;;;10.00;69.13;100959.47;5327005;32;33110;-81
2022/12/26 02:26:06;;;;;;;;;;;;;;;10.16;68.56;100960.75;5340655;32;44752;-67
2022/12/26 02:29:16;;;;;;;;;;;;;;;9.63;71.01;100964.84;5323517;32;33987;-82
2022/12/26 02:32:34;;;;;;;;;;;;;;;9.72;70.49;100964.56;5333469;32;44669;-68
2022/12/26 02:35:41;;;;;;;;;;;;;;;9.50;71.16;100957.28;5324278;32;35446;-82
2022/12/26 02:39:02;;;;;;;;;;;;;;;9.82;69.96;100958.19;5324978;32;34199;-82
2022/12/26 02:42:42;;;;;;;;;;;;;;;9.17;72.06;100956.34;5339217;32;34895;-68
2022/12/26 02:49:24;;;;;;;;;;;;;;;8.95;73.98;100924.56;5323867;32;34223;-67
2022/12/26 03:13:45;;;;;;;;;;;;;;;9.64;70.02;100914.06;5342386;32;33681;-67
2022/12/26 03:20:13;;;;;;;;;;;;;;;9.68;69.96;100929.69;5341180;32;34090;-67
2022/12/26 03:23:15;;;;;;;;;;;;;;;9.00;71.90;100923.56;5329110;32;34203;-68
2022/12/26 03:36:42;;;;;;;;;;;;;;;9.13;72.11;100933.72;5326489;32;33937;-68
2022/12/26 04:41:34;;;;;;;;;;;;;;;8.03;76.46;100969.28;5322957;32;34849;-82
2022/12/26 04:44:51;;;;;;;;;;;;;;;8.38;74.11;100952.94;5338326;32;44426;-67
2022/12/26 04:51:13;;;;;;;;;;;;;;;8.18;74.97;100955.94;5311089;32;33855;-68
2022/12/26 04:54:16;;;;;;;;;;;;;;;8.14;75.18;100936.78;5336674;32;33862;-67
2022/12/26 04:57:18;;;;;;;;;;;;;;;8.22;74.83;100947.09;5326899;32;44989;-81
2022/12/26 05:00:20;;;;;;;;;;;;;;;7.86;75.68;100940.84;5339901;32;33794;-68
2022/12/26 05:10:03;;;;;;;;;;;;;;;8.59;70.78;100934.09;5333600;32;34136;-68
2022/12/26 05:13:05;;;;;;;;;;;;;;;8.73;70.70;100944.28;5322154;32;34674;-81
2022/12/26 05:29:35;;;;;;;;;;;;;;;6.57;79.74;100954.28;5323969;32;34267;-67
2022/12/26 05:35:57;;;;;;;;;;;;;;;7.12;78.03;100936.03;5329421;32;34613;-75
2022/12/26 05:39:00;;;;;;;;;;;;;;;6.75;80.80;100926.13;5324401;32;34175;-82
2022/12/26 05:42:02;;;;;;;;;;;;;;;7.82;76.38;100928.69;5341002;32;34630;-68
2022/12/26 05:45:04;;;;;;;;;;;;;;;8.14;72.28;100921.06;5323527;32;33954;-81
2022/12/26 05:48:06;;;;;;;;;;;;;;;6.90;77.36;100919.84;5340560;32;33947;-68
2022/12/26 05:51:08;;;;;;;;;;;;;;;6.59;80.02;100929.00;5307410;32;33641;-80
2022/12/26 05:54:10;;;;;;;;;;;;;;;7.28;79.36;100937.53;5325350;32;34580;-81
2022/12/26 05:57:12;;;;;;;;;;;;;;;7.06;77.44;100938.75;5334847;32;33492;-67
2022/12/26 06:00:14;;;;;;;;;;;;;;;6.26;82.17;100941.63;5323832;32;33175;-68
2022/12/26 06:03:16;;;;;;;;;;;;;;;6.49;81.74;100942.19;5339766;32;46301;-81
2022/12/26 06:06:18;;;;;;;;;;;;;;;6.54;80.25;100947.34;5322547;32;33684;-67
2022/12/26 06:09:21;;;;;;;;;;;;;;;7.86;75.56;100946.09;5339643;32;34066;-68
2022/12/26 06:12:23;;;;;;;;;;;;;;;7.83;73.80;100940.88;5325374;32;33230;-68
2022/12/26 06:15:25;;;;;;;;;;;;;;;6.56;82.04;100939.50;5329626;32;33762;-67
2022/12/26 06:18:27;;;;;;;;;;;;;;;6.73;81.25;100935.75;5321042;32;34252;-67
2022/12/26 06:21:28;;;;;;;;;;;;;;;6.12;83.52;100920.94;5323649;32;33174;-67
2022/12/26 06:24:30;;;;;;;;;;;;;;;6.27;84.04;100926.84;5326128;32;34282;-82
2022/12/26 06:27:32;;;;;;;;;;;;;;;6.55;82.66;100922.09;5323780;32;33626;-67
2022/12/26 06:30:34;;;;;;;;;;;;;;;6.35;82.11;100930.19;5337215;32;33441;-67
2022/12/26 06:33:36;;;;;;;;;;;;;;;6.74;81.22;100923.56;5322390;32;33942;-76
2022/12/26 06:36:38;;;;;;;;;;;;;;;6.69;82.13;100935.81;5330511;32;34503;-80
2022/12/26 06:39:40;;;;;;;;;;;;;;;6.97;80.12;100939.75;5325098;32;34909;-80
2022/12/26 06:42:42;;;;;;;;;;;;;;;6.84;80.93;100939.97;5326335;32;33209;-68
2022/12/26 06:45:52;;;;;;;;;;;;;;;6.53;83.22;100932.56;5340693;32;34495;-68
2022/12/26 06:48:54;;;;;;;;;;;;;;;7.00;81.57;100917.94;5324706;32;44948;-67
2022/12/26 06:51:56;;;;;;;;;;;;;;;7.30;78.57;100919.19;5320423;32;33943;-82
2022/12/26 06:54:58;;;;;;;;;;;;;;;6.90;80.77;100919.84;5326004;32;33933;-68
2022/12/26 06:58:00;;;;;;;;;;;;;;;7.12;80.29;100922.09;5315224;32;33829;-81
2022/12/26 07:01:03;;;;;;;;;;;;;;;6.98;80.21;100924.94;5342292;32;36836;-80
2022/12/26 07:04:05;;;;;;;;;;;;;;;6.39;83.90;100929.28;5323692;32;33940;-67
2022/12/26 07:07:07;;;;;;;;;;;;;;;6.73;81.71;100927.91;5342186;32;34146;-68
2022/12/26 07:10:09;;;;;;;;;;;;;;;6.72;82.11;100931.44;5325518;32;33720;-82
2022/12/26 07:13:11;;;;;;;;;;;;;;;6.88;82.40;100945.09;5339816;32;33479;-82
2022/12/26 07:16:13;;;;;;;;;;;;;;;6.79;82.13;100950.47;5326747;32;34105;-69
2022/12/26 07:19:15;;;;;;;;;;;;;;;7.22;80.61;100949.84;5324970;32;34639;-67
2022/12/26 07:22:17;;;;;;;;;;;;;;;7.73;78.29;100948.06;5342053;32;44662;-67
2022/12/26 07:25:19;;;;;;;;;;;;;;;7.48;78.70;100958.09;5325474;32;33351;-80
2022/12/26 07:28:20;;;;;;;;;;;;;;;7.22;79.80;100955.91;5328528;32;36267;-68
2022/12/26 07:31:23;;;;;;;;;;;;;;;7.66;78.56;100948.19;5322541;32;34788;-82
2022/12/26 07:34:25;;;;;;;;;;;;;;;7.96;76.03;100958.09;5339066;32;34015;-66
2022/12/26 07:37:32;;;;;;;;;;;;;;;7.94;77.64;100957.25;5328569;32;34270;-67
2022/12/26 07:40:34;;;;;;;;;;;;;;;8.21;75.64;100957.59;5325801;32;33352;-69
2022/12/26 07:43:36;;;;;;;;;;;;;;;9.05;71.96;100967.12;5341631;32;34229;-67
2022/12/26 07:46:38;;;;;;;;;;;;;;;8.99;71.87;100956.78;5327533;32;34474;-77
2022/12/26 07:49:40;;;;;;;;;;;;;;;8.46;73.79;100958.84;5342219;32;33418;-68
2022/12/26 07:52:42;;;;;;;;;;;;;;;8.06;76.60;100964.03;5305193;32;34025;-81
2022/12/26 07:55:44;;;;;;;;;;;;;;;8.31;74.95;100967.88;5327864;32;33642;-68
2022/12/26 07:58:49;;;;;;;;;;;;;;;8.05;76.54;100962.25;5327726;32;36054;-67
2022/12/26 08:01:51;;;;;;;;;;;;;;;8.69;74.88;100960.97;5326260;32;45161;-81
2022/12/26 08:04:53;;;;;;;;;;;;;;;8.23;75.77;100971.53;5342295;32;33858;-81
2022/12/26 08:07:55;;;;;;;;;;;;;;;8.44;74.22;100970.25;5324671;32;34310;-67
2022/12/26 08:11:00;;;;;;;;;;;;;;;8.50;75.33;100971.00;5327085;32;33926;-68
2022/12/26 08:14:03;;;;;;;;;;;;;;;8.12;75.66;100963.91;5321171;32;34443;-78
2022/12/26 08:17:05;;;;;;;;;;;;;;;8.55;73.13;100958.66;5338795;32;33375;-68
2022/12/26 08:20:07;;;;;;;;;;;;;;;9.03;72.21;100970.69;5328119;32;33811;-75
2022/12/26 08:23:09;;;;;;;;;;;;;;;8.60;73.00;100987.38;5326766;32;34566;-67
2022/12/26 08:26:12;;;;;;;;;;;;;;;8.33;74.91;100973.06;5347053;32;34862;-69
2022/12/26 08:29:14;;;;;;;;;;;;;;;9.29;71.67;100981.44;5331698;32;33355;-81
2022/12/26 08:32:16;;;;;;;;;;;;;;;8.56;73.60;100983.09;5337514;32;33691;-67
2022/12/26 08:35:18;;;;;;;;;;;;;;;8.71;73.95;100989.78;5320893;32;45038;-81
2022/12/26 08:38:19;;;;;;;;;;;;;;;8.70;73.91;100995.91;5336147;32;33886;-83
2022/12/26 08:41:21;;;;;;;;;;;;;;;8.83;72.54;100985.13;5331018;32;37204;-82
2022/12/26 08:44:23;;;;;;;;;;;;;;;9.17;72.98;100989.59;5324012;32;33253;-69
2022/12/26 08:47:29;;;;;;;;;;;;;;;8.67;74.40;101000.31;5339494;32;35175;-76
2022/12/26 08:50:31;;;;;;;;;;;;;;;8.16;76.96;100991.72;5303618;32;33653;-80
2022/12/26 08:53:41;;;;;;;;;;;;;;;8.90;73.52;100991.94;5324784;32;33350;-67
2022/12/26 08:56:43;;;;;;;;;;;;;;;8.93;73.90;100997.13;5323198;32;34833;-82
2022/12/26 08:59:45;;;;;;;;;;;;;;;9.29;71.30;100991.06;5330468;32;33673;-81
2022/12/26 09:02:47;;;;;;;;;;;;;;;8.81;74.54;101000.00;5323809;32;45245;-67
2022/12/26 09:05:49;;;;;;;;;;;;;;;9.88;69.34;100997.41;5324970;32;33862;-67
2022/12/26 09:08:51;;;;;;;;;;;;;;;8.94;71.41;100992.72;5342878;32;33488;-67
2022/12/26 09:11:53;;;;;;;;;;;;;;;8.65;75.87;100990.75;5324121;32;34398;-67
2022/12/26 09:16:19;;;;;;;;;;;;;;;9.57;72.68;100991.22;5405211;32;931491;-81
2022/12/26 09:19:22;;;;;;;;;;;;;;;9.87;68.69;100986.97;5427276;32;44641;-82
2022/12/26 09:25:44;;;;;;;;;;;;;;;9.96;70.59;100997.19;5428514;32;34364;-80
2022/12/26 09:28:46;;;;;;;;;;;;;;;9.40;72.62;101008.28;5415246;32;44548;-80
2022/12/26 09:31:48;;;;;;;;;;;;;;;8.87;74.62;101005.09;5411210;32;34946;-80
2022/12/26 09:34:50;;;;;;;;;;;;;;;9.13;73.60;101004.50;5427045;32;35807;-67
2022/12/26 09:37:52;;;;;;;;;;;;;;;9.23;73.74;101003.41;5411367;32;34834;-67
2022/12/26 09:40:57;;;;;;;;;;;;;;;9.18;76.04;101007.91;5429998;32;33992;-82
2022/12/26 09:44:14;;;;;;;;;;;;;;;9.78;72.05;101009.91;5412987;32;34605;-66
2022/12/26 09:47:16;;;;;;;;;;;;;;;10.68;67.22;100993.41;5423283;32;45351;-69
2022/12/26 09:50:21;;;;;;;;;;;;;;;10.10;69.44;101000.31;5413143;32;35562;-68
2022/12/26 09:53:23;;;;;;;;;;;;;;;9.02;73.47;101008.31;5398946;32;34402;-67
2022/12/26 09:56:25;;;;;;;;;;;;;;;9.72;72.19;100996.97;5430514;32;35634;-81
2022/12/26 09:59:55;;;;;;;;;;;;;;;9.57;73.05;101004.34;5391332;32;44906;-81
2022/12/26 10:02:57;;;;;;;;;;;;;;;8.94;74.56;101004.06;5426164;32;36002;-81
2022/12/26 10:06:08;;;;;;;;;;;;;;;9.23;74.40;101011.28;5415085;32;35436;-76
2022/12/26 10:09:13;;;;;;;;;;;;;;;9.16;74.44;101009.72;5413357;32;35112;-81
2022/12/26 10:12:28;;;;;;;;;;;;;;;9.57;73.96;101006.97;5430042;32;35465;-81
2022/12/26 10:15:41;;;;;;;;;;;;;;;9.42;73.55;101008.22;5415878;32;34920;-75
2022/12/26 10:19:08;;;;;;;;;;;;;;;9.96;71.70;101005.94;5420393;32;34765;-80
2022/12/26 10:22:15;;;;;;;;;;;;;;;11.00;67.39;100988.94;5409790;32;35391;-82
2022/12/26 10:25:19;;;;;;;;;;;;;;;10.16;69.81;100994.03;5398685;32;44570;-68
2022/12/26 10:28:26;;;;;;;;;;;;;;;9.79;70.65;100995.03;5397261;32;35421;-81
2022/12/26 10:31:31;;;;;;;;;;;;;;;8.99;73.22;100983.00;5359566;32;34278;-68
2022/12/26 10:34:44;;;;;;;;;;;;;;;8.75;75.79;100975.69;5384764;32;34707;-83
2022/12/26 10:37:46;;;;;;;;;;;;;;;8.95;75.69;100970.84;5379675;32;47030;-69
2022/12/26 10:40:49;;;;;;;;;;;;;;;9.42;73.60;100955.75;5387284;32;35440;-81
2022/12/26 10:43:51;;;;;;;;;;;;;;;9.19;73.90;100953.69;5361404;32;34699;-81
2022/12/26 10:47:05;;;;;;;;;;;;;;;9.43;73.96;100949.59;5367683;32;34818;-81
2022/12/26 10:50:09;;;;;;;;;;;;;;;9.87;71.70;100958.06;5380670;32;35473;-81
2022/12/26 10:53:12;;;;;;;;;;;;;;;10.12;70.61;100948.63;5358501;32;34375;-67
2022/12/26 10:56:14;;;;;;;;;;;;;;;9.03;74.19;100952.34;5375193;32;35227;-82
2022/12/26 10:59:20;;;;;;;;;;;;;;;10.32;70.79;100941.97;5394192;32;45184;-81
2022/12/26 11:02:29;;;;;;;;;;;;;;;10.18;70.33;100939.72;5365852;32;34063;-81
2022/12/26 11:05:31;;;;;;;;;;;;;;;9.14;74.31;100945.06;5389791;32;35680;-68
2022/12/26 11:08:53;;;;;;;;;;;;;;;10.01;71.92;100927.03;5388693;32;47816;-81
2022/12/26 11:11:55;;;;;;;;;;;;;;;10.25;70.83;100926.38;5398593;32;34349;-81
2022/12/26 11:14:58;;;;;;;;;;;;;;;9.70;73.78;100916.50;5393310;32;36354;-66
2022/12/26 11:18:26;;;;;;;;;;;;;;;10.46;68.39;100917.00;5400839;32;35276;-68
2022/12/26 11:21:29;;;;;;;;;;;;;;;10.85;66.86;100914.03;5412528;32;34206;-81
2022/12/26 11:24:31;;;;;;;;;;;;;;;11.23;66.86;100904.91;5389144;32;35193;-68
2022/12/26 11:27:33;;;;;;;;;;;;;;;11.27;65.82;100901.25;5416115;32;34790;-81
2022/12/26 11:30:36;;;;;;;;;;;;;;;10.02;70.38;100907.75;5386291;32;35249;-81
2022/12/26 11:33:42;;;;;;;;;;;;;;;11.08;67.11;100897.53;5395866;32;34711;-68
2022/12/26 11:36:45;;;;;;;;;;;;;;;10.28;69.37;100905.25;5410452;32;34921;-68
2022/12/26 11:39:48;;;;;;;;;;;;;;;9.78;72.38;100898.78;5384684;32;45294;-68
2022/12/26 11:42:51;;;;;;;;;;;;;;;10.57;69.45;100900.91;5400191;32;34611;-82
2022/12/26 11:45:53;;;;;;;;;;;;;;;11.41;66.13;100895.53;5399020;32;35493;-83
2022/12/26 11:48:55;;;;;;;;;;;;;;;11.93;63.68;100893.69;5413703;32;34929;-68
2022/12/26 11:51:58;;;;;;;;;;;;;;;12.00;63.44;100905.72;5367169;32;34702;-82
2022/12/26 11:55:01;;;;;;;;;;;;;;;10.64;66.50;100893.69;5399248;32;36587;-68
2022/12/26 11:58:09;;;;;;;;;;;;;;;11.60;66.20;100904.50;5402689;32;34993;-68
2022/12/26 12:01:12;;;;;;;;;;;;;;;12.39;62.21;100891.97;5398052;32;35022;-67
2022/12/26 12:04:16;;;;;;;;;;;;;;;10.37;68.12;100888.37;5402932;32;34808;-82
2022/12/26 12:07:21;;;;;;;;;;;;;;;10.42;69.47;100899.59;5368688;32;46102;-68
2022/12/26 12:10:41;;;;;;;;;;;;;;;11.10;67.39;100890.44;5408247;32;34973;-81
2022/12/26 12:13:47;;;;;;;;;;;;;;;11.44;65.01;100884.87;5407110;32;35311;-81
2022/12/26 12:16:52;;;;;;;;;;;;;;;12.05;63.55;100866.06;5374722;32;44979;-81
2022/12/26 12:20:01;;;;;;;;;;;;;;;11.09;66.20;100872.94;5416673;32;34615;-82
2022/12/26 12:23:03;;;;;;;;;;;;;;;11.83;63.86;100874.72;5401930;32;34263;-82
2022/12/26 12:26:09;;;;;;;;;;;;;;;11.39;66.13;100887.66;5413939;32;34442;-76
2022/12/26 12:29:17;;;;;;;;;;;;;;;12.58;61.66;100884.22;5389834;32;35040;-69
2022/12/26 12:32:33;;;;;;;;;;;;;;;12.87;60.15;100868.06;5370808;32;44361;-69
2022/12/26 12:35:40;;;;;;;;;;;;;;;12.00;63.45;100873.25;5386647;32;34262;-81
2022/12/26 12:38:45;;;;;;;;;;;;;;;12.86;61.55;100861.06;5374331;32;35708;-68
2022/12/26 12:41:53;;;;;;;;;;;;;;;12.22;61.85;100868.03;5411638;32;44953;-75
2022/12/26 12:45:14;;;;;;;;;;;;;;;13.85;58.86;100866.53;5401260;32;35043;-81
2022/12/26 12:48:23;;;;;;;;;;;;;;;12.75;59.66;100873.81;5381236;32;45341;-68
2022/12/26 12:51:28;;;;;;;;;;;;;;;12.99;59.60;100853.50;5390235;32;34665;-83
2022/12/26 12:54:51;;;;;;;;;;;;;;;14.29;56.41;100843.31;5377763;32;34904;-76
2022/12/26 12:57:53;;;;;;;;;;;;;;;15.17;53.05;100835.50;5398080;32;44711;-82
2022/12/26 13:01:00;;;;;;;;;;;;;;;13.82;57.36;100845.53;5381914;32;34780;-69
2022/12/26 13:04:28;;;;;;;;;;;;;;;13.71;57.54;100839.84;5355631;32;34251;-68
2022/12/26 13:07:32;;;;;;;;;;;;;;;13.67;57.34;100835.66;5390947;32;35635;-81
2022/12/26 13:10:37;;;;;;;;;;;;;;;13.88;56.22;100841.75;5365518;32;35411;-69
2022/12/26 13:14:01;;;;;;;;;;;;;;;13.04;59.36;100840.97;5394587;32;35749;-67
2022/12/26 13:17:05;;;;;;;;;;;;;;;12.61;60.89;100855.06;5369694;32;34935;-83
2022/12/26 13:20:19;;;;;;;;;;;;;;;11.96;61.91;100854.06;5364539;32;35476;-69
2022/12/26 13:26:51;;;;;;;;;;;;;;;12.65;60.51;100840.84;5394478;32;35245;-84
2022/12/26 13:29:53;;;;;;;;;;;;;;;12.78;60.28;100854.41;5384852;32;44939;-81
2022/12/26 13:32:55;;;;;;;;;;;;;;;12.85;60.09;100838.25;5374944;32;36151;-84
2022/12/26 13:36:01;;;;;;;;;;;;;;;13.73;57.71;100854.72;5368123;32;34232;-83
2022/12/26 13:39:03;;;;;;;;;;;;;;;13.21;58.52;100856.16;5381944;32;34618;-81
2022/12/26 13:45:41;;;;;;;;;;;;;;;12.81;60.32;100847.19;5386218;32;34981;-81
2022/12/26 13:48:43;;;;;;;;;;;;;;;12.94;60.03;100856.31;5375516;32;35315;-66
2022/12/26 13:51:46;;;;;;;;;;;;;;;12.76;60.70;100859.75;5348183;32;34258;-67
2022/12/26 13:54:51;;;;;;;;;;;;;;;11.34;65.84;100868.56;5381020;32;44663;-67
2022/12/26 13:58:08;;;;;;;;;;;;;;;12.35;62.46;100864.88;5372115;32;34923;-81
2022/12/26 14:01:16;;;;;;;;;;;;;;;11.85;64.41;100857.13;5393049;32;36503;-81
2022/12/26 14:04:27;;;;;;;;;;;;;;;12.17;63.04;100857.66;5386152;32;45117;-82
2022/12/26 14:07:37;;;;;;;;;;;;;;;11.40;65.93;100859.59;5395822;32;35915;-73
2022/12/26 14:10:42;;;;;;;;;;;;;;;10.52;68.73;100866.88;5416839;32;34834;-67
2022/12/26 14:13:44;;;;;;;;;;;;;;;10.63;69.17;100881.47;5391443;32;34674;-81
2022/12/26 14:16:49;;;;;;;;;;;;;;;10.97;68.01;100881.22;5412933;32;35021;-67
2022/12/26 14:20:10;;;;;;;;;;;;;;;10.43;70.60;100872.44;5369904;32;45977;-82
2022/12/26 14:23:21;;;;;;;;;;;;;;;10.74;68.88;100871.44;5382549;32;35154;-81
2022/12/26 14:26:41;;;;;;;;;;;;;;;11.12;67.01;100867.56;5395499;32;44929;-81
2022/12/26 14:29:46;;;;;;;;;;;;;;;10.77;68.67;100877.47;5398506;32;34715;-68
2022/12/26 14:33:06;;;;;;;;;;;;;;;10.16;70.95;100879.31;5390633;32;44617;-81
2022/12/26 14:36:32;;;;;;;;;;;;;;;9.59;74.27;100882.69;5370067;32;34790;-82
2022/12/26 14:39:43;;;;;;;;;;;;;;;9.93;73.24;100881.75;5363471;32;34963;-81
2022/12/26 14:43:15;;;;;;;;;;;;;;;10.68;69.60;100882.16;5377779;32;35230;-81
2022/12/26 14:46:29;;;;;;;;;;;;;;;9.68;74.13;100885.06;5379080;32;35489;-82
2022/12/26 14:49:31;;;;;;;;;;;;;;;9.17;76.58;100885.53;5404139;32;35639;-75
2022/12/26 14:52:39;;;;;;;;;;;;;;;8.92;77.95;100901.00;5386832;32;34835;-70
2022/12/26 14:55:46;;;;;;;;;;;;;;;9.32;77.49;100896.53;5379617;32;35441;-67
2022/12/26 14:58:48;;;;;;;;;;;;;;;9.48;74.88;100888.22;5389622;32;45071;-69
2022/12/26 15:01:58;;;;;;;;;;;;;;;10.10;73.33;100884.75;5365726;32;34553;-68
2022/12/26 15:05:07;;;;;;;;;;;;;;;9.81;73.35;100877.72;5377726;32;36315;-78
2022/12/26 15:08:09;;;;;;;;;;;;;;;9.67;73.78;100859.72;5381582;32;35839;-68
2022/12/26 15:11:30;;;;;;;;;;;;;;;9.71;74.61;100876.25;5378828;32;35631;-68
2022/12/26 15:14:34;;;;;;;;;;;;;;;9.62;73.93;100881.75;5386664;32;36372;-67
2022/12/26 15:17:40;;;;;;;;;;;;;;;9.82;74.61;100873.31;5397642;32;35464;-82
2022/12/26 15:20:51;;;;;;;;;;;;;;;9.65;74.79;100876.41;5395746;32;35389;-68
2022/12/26 15:24:02;;;;;;;;;;;;;;;9.82;72.96;100868.06;5399457;32;44580;-81
2022/12/26 15:27:31;;;;;;;;;;;;;;;9.70;75.10;100862.25;5379172;32;35017;-81
2022/12/26 15:30:52;;;;;;;;;;;;;;;9.73;74.14;100856.09;5366145;32;35250;-67
2022/12/26 15:34:03;;;;;;;;;;;;;;;10.16;72.02;100849.56;5371640;32;44476;-67
2022/12/26 15:37:13;;;;;;;;;;;;;;;10.35;71.75;100849.91;5380128;32;35543;-68
2022/12/26 15:40:24;;;;;;;;;;;;;;;10.37;71.07;100848.97;5380110;32;34849;-69
2022/12/26 15:43:32;;;;;;;;;;;;;;;10.73;68.84;100839.03;5367453;32;35273;-77
2022/12/26 15:46:35;;;;;;;;;;;;;;;10.61;69.38;100847.31;5397377;32;35334;-81
2022/12/26 15:49:44;;;;;;;;;;;;;;;10.55;69.14;100847.50;5389424;32;35771;-82
2022/12/26 15:52:46;;;;;;;;;;;;;;;10.25;71.27;100847.56;5373941;32;34763;-82
2022/12/26 15:55:53;;;;;;;;;;;;;;;10.42;70.03;100852.28;5381061;32;44541;-81
2022/12/26 15:59:01;;;;;;;;;;;;;;;10.17;71.46;100852.12;5378809;32;34322;-80
2022/12/26 16:02:14;;;;;;;;;;;;;;;10.03;72.27;100852.56;5391260;32;35343;-68
2022/12/26 16:05:16;;;;;;;;;;;;;;;9.61;73.84;100862.53;5378363;32;34899;-75
2022/12/26 16:08:25;;;;;;;;;;;;;;;9.42;74.70;100856.91;5398886;32;34100;-81
2022/12/26 16:11:41;;;;;;;;;;;;;;;9.62;73.52;100855.50;5371817;32;34682;-67
2022/12/26 16:14:43;;;;;;;;;;;;;;;9.42;75.11;100838.53;5369249;32;34754;-69
2022/12/26 16:17:47;;;;;;;;;;;;;;;9.36;74.73;100845.72;5411189;32;35828;-67
2022/12/26 16:24:10;;;;;;;;;;;;;;;9.95;72.49;100844.03;5389847;32;34973;-81
2022/12/26 16:27:17;;;;;;;;;;;;;;;9.51;73.59;100840.06;5364944;32;35243;-67
2022/12/26 16:30:23;;;;;;;;;;;;;;;9.78;73.42;100836.63;5371345;32;44172;-81
2022/12/26 16:33:27;;;;;;;;;;;;;;;8.59;77.78;100846.78;5398755;32;34658;-82
2022/12/26 16:36:31;;;;;;;;;;;;;;;9.32;76.02;100842.31;5382903;32;35010;-81
2022/12/26 16:39:33;;;;;;;;;;;;;;;9.46;74.21;100834.06;5415959;32;36034;-67
2022/12/26 16:42:35;;;;;;;;;;;;;;;9.18;74.89;100842.69;5399730;32;35026;-68
2022/12/26 16:45:36;;;;;;;;;;;;;;;9.97;72.18;100842.22;5414082;32;37368;-81
2022/12/26 16:48:39;;;;;;;;;;;;;;;9.82;72.19;100841.81;5397682;32;35252;-83
2022/12/26 16:51:45;;;;;;;;;;;;;;;9.90;71.33;100831.94;5329051;32;35524;-70
2022/12/26 16:54:47;;;;;;;;;;;;;;;9.62;72.20;100835.38;5382853;32;44678;-68
2022/12/26 16:57:49;;;;;;;;;;;;;;;10.22;69.80;100834.47;5397036;32;35319;-82
2022/12/26 17:00:59;;;;;;;;;;;;;;;9.72;71.50;100833.34;5399042;32;34587;-69
2022/12/26 17:04:02;;;;;;;;;;;;;;;9.47;73.00;100848.94;5392331;32;35171;-67
2022/12/26 17:07:05;;;;;;;;;;;;;;;9.70;72.10;100840.41;5390968;32;35035;-67
2022/12/26 17:10:16;;;;;;;;;;;;;;;9.72;72.56;100835.97;5363247;32;35934;-68
2022/12/26 17:13:20;;;;;;;;;;;;;;;9.24;73.49;100849.53;5385040;32;45834;-67
2022/12/26 17:16:23;;;;;;;;;;;;;;;9.03;75.97;100850.94;5392447;32;35510;-82
2022/12/26 17:19:26;;;;;;;;;;;;;;;8.79;77.56;100843.69;5391537;32;34370;-70
2022/12/26 17:22:31;;;;;;;;;;;;;;;8.41;78.77;100858.53;5374626;32;34784;-80
2022/12/26 17:25:33;;;;;;;;;;;;;;;8.11;81.04;100844.31;5382476;32;35364;-68
2022/12/26 17:28:36;;;;;;;;;;;;;;;8.58;78.72;100830.22;5364828;32;35214;-68
2022/12/26 17:31:39;;;;;;;;;;;;;;;8.47;79.32;100847.94;5376994;32;34860;-75
2022/12/26 17:34:41;;;;;;;;;;;;;;;8.72;77.28;100834.25;5360763;32;35076;-67
2022/12/26 17:37:43;;;;;;;;;;;;;;;9.36;74.01;100843.09;5383427;32;34981;-68
2022/12/26 17:40:46;;;;;;;;;;;;;;;8.00;81.49;100843.72;5375244;32;35475;-67
2022/12/26 17:43:48;;;;;;;;;;;;;;;8.48;78.78;100836.53;5410308;32;43511;-81
2022/12/26 17:46:49;;;;;;;;;;;;;;;8.72;77.41;100832.50;5382379;32;35594;-68
2022/12/26 17:49:52;;;;;;;;;;;;;;;8.93;76.58;100823.22;5376291;32;35230;-81
2022/12/26 17:52:54;;;;;;;;;;;;;;;7.97;80.03;100843.78;5362765;32;35472;-81
2022/12/26 17:55:56;;;;;;;;;;;;;;;7.56;82.32;100845.47;5358391;32;35154;-76
2022/12/26 17:58:58;;;;;;;;;;;;;;;8.10;79.72;100830.37;5397203;32;35096;-68
2022/12/26 18:02:00;;;;;;;;;;;;;;;7.06;83.25;100829.81;5381069;32;34714;-83
2022/12/26 18:05:03;;;;;;;;;;;;;;;8.18;81.92;100821.50;5388883;32;35473;-78
2022/12/26 18:08:05;;;;;;;;;;;;;;;8.37;77.37;100823.72;5384534;32;34904;-75
2022/12/26 18:11:10;;;;;;;;;;;;;;;8.26;78.83;100820.44;5373711;32;35474;-81
2022/12/26 18:14:12;;;;;;;;;;;;;;;7.47;82.38;100827.31;5416905;32;35404;-68
2022/12/26 18:17:17;;;;;;;;;;;;;;;7.43;82.21;100823.94;5401898;32;35508;-81
2022/12/26 18:20:20;;;;;;;;;;;;;;;6.93;84.16;100822.22;5385455;32;45221;-67
2022/12/26 18:23:22;;;;;;;;;;;;;;;6.94;85.43;100808.28;5380217;32;34776;-81
2022/12/26 18:26:25;;;;;;;;;;;;;;;7.37;84.21;100807.50;5393262;32;35023;-81